Aérodrome :
LOGIN :

S'inscrire | Disclaimer

   EN    FR    IT 

 










Légende :    VFR   VFR Marginal   IFR   IFR Intensif   IFR Très Intensif
Visi : 
Plafond : 
>= 8 km
>= 3000ft
5 à 8 km
1000 à 3000 ft
1500m à 5 km
500 à 1000 ft
800 à 1500m
200 à 500 ft
< 800m
< 200 ft
Symboles :   Orages  Brouillard  Fortes neiges  Fortes précipitations  Vent > 20 kt
SIGMETs :   Divers  Orages  Givrage  Turbulence  Onde Orograph.  Cendres Volcan.







- Altitude de l'aérodrome : 1302 ft
- Code IATA : GNB
- Voir les cartes d'approche


LFLS - Grenoble / St. Geoirs

DERNIER METAR :
  • 152000Z AUTO 29002KT 6000 -SNRA FEW058 BKN070 OVC082 01/M02 Q1018 TEMPO 3000 -RA BR

METARs EXPIRÉS :
  • 151930Z AUTO VRB02KT 7000 FEW056 BKN070 OVC080 01/M03 Q1018 TEMPO 3000 -RA BR
  • 151900Z AUTO 23002KT 7000 BKN066 BKN076 OVC090 01/M03 Q1018 TEMPO 3000 -RA BR
  • 151830Z AUTO 22003KT 8000 FEW066 BKN076 OVC088 02/M02 Q1018 TEMPO 3000 -RA BR
  • 151800Z AUTO 09003KT 9999 BKN072 OVC084 02/M03 Q1018 TEMPO 3000 -RA BR
  • 151730Z AUTO 09005KT 9000 SCT074 OVC100 01/M02 Q1018 TEMPO 3000 -RA BR
  • 151700Z AUTO 08003KT 8000 SCT076 OVC100 01/M02 Q1019 TEMPO 3000 -RA BR

TAF AMD TAF LFLS
Valide du 15 à 15h jusqu'au 16 à 15h UTC


151437Z 1515/1615 36005KT 8000 NSC
BECMG 1515/1517 09005KT
PROB30
TEMPO 1517/1519 -SN
TEMPO 1518/1524 3000 -RA BR
BECMG 1522/1524 BKN012
TEMPO 1600/1607 1500 RA BKN006
PROB40
TEMPO 1607/1611 0800 BCFG BKN004
ATIS : +33 4 76 65 55 89
Pas de NOTAMs connus pour ce terrain.



MET'MAP, la Météo Aéronautique d'un coup d'oeil ! - Copyright ORBIFLY Décembre 2007 - Disclaimer

ORBIFLY MET'MAP TEAM :

Programmation & Développement : Alexandra Zaïnal
Conception & Développement : Baudouin d'Aumeries
Co-Programmation & Développement : Marc-Olivier Méhu
Soutien technique & logistique : Manuel Goepfert

Contact : metmap@orbifly.com




SOURCES & CREDITS :

   NOAA